Myrebas — LLKK — position and weather

sailwx.info

Track history (hours):
 
Tides and Currents Weather Stations Pressure Air Temp Water Temp Dewpoint Dewpoint Depression Visibility Wind Speed Wind Dir Waves Ship Positions

Myrebas

Last reported at 2018-Mar-22 12:32 UTC. Time now 2018-Jul-20 16:13 UTC.
Position N 67°33' E 014°04'.
Warning: this ship's position is months out of date.

Length 28 m; draft 6 m.

Type: Fishing. MMSI: 257587500.

Date/timePositionNaut miles runAvg speedWind from/ knotsBaromVisibWave heightAir tempDewpointWater temp
2018-Mar-22 12:32N 67°33' E 014°04'0 8.8
2018-Mar-22 12:30N 67°32' E 014°05'4 8.8
2018-Mar-22 12:00N 67°28' E 014°08'4 8.9
2018-Mar-22 11:30N 67°24' E 014°12'4 7.9
2018-Mar-22 11:00N 67°20' E 014°16'4 7.8
2018-Mar-22 10:30N 67°17' E 014°22'1 1.8
2018-Mar-22 10:00N 67°18' E 014°23'0 0.0
2018-Mar-22 09:30N 67°18' E 014°23'0 0.0
2018-Mar-22 09:00N 67°18' E 014°23'0 0.0
2018-Mar-22 08:30N 67°18' E 014°23'0 0.0
2018-Mar-22 08:00N 67°18' E 014°23'0 0.0
2018-Mar-22 07:30N 67°18' E 014°23'0 0.0
2018-Mar-22 07:00N 67°18' E 014°23'0 0.0
2018-Mar-22 06:30N 67°18' E 014°23'0 0.0
2018-Mar-22 06:00N 67°18' E 014°23'0 0.0
2018-Mar-22 05:30N 67°18' E 014°23'0 0.0
2018-Mar-22 05:00N 67°18' E 014°23'0 0.0
2018-Mar-22 04:30N 67°18' E 014°23'0 0.0
2018-Mar-22 04:00N 67°18' E 014°23'0 0.0
2018-Mar-22 03:30N 67°18' E 014°23'0 0.0
2018-Mar-22 03:00N 67°18' E 014°23'0 0.0
2018-Mar-22 02:30N 67°18' E 014°23'0 0.0
2018-Mar-22 02:00N 67°18' E 014°23'0 0.0
2018-Mar-22 01:30N 67°18' E 014°23'0 0.0
2018-Mar-22 01:00N 67°18' E 014°23'0 0.0
2018-Mar-22 00:30N 67°18' E 014°23'0 0.0
2018-Mar-22 00:00N 67°18' E 014°23'0 0.7
2018-Mar-21 23:30N 67°18' E 014°22'4 8.5
2018-Mar-21 23:00N 67°22' E 014°25'4 8.5
2018-Mar-21 22:30N 67°26' E 014°26'4 8.5
2018-Mar-21 22:00N 67°30' E 014°23'4 8.3
2018-Mar-21 21:28N 67°35' E 014°21'4 8.4
2018-Mar-21 21:00N 67°38' E 014°18'4 8.5
2018-Mar-21 20:30N 67°43' E 014°16'5 8.6
2018-Mar-21 19:55N 67°48' E 014°14'  
Track history (hours):
 
Tides and Currents Weather Stations Pressure Air Temp Water Temp Dewpoint Dewpoint Depression Visibility Wind Speed Wind Dir Waves Ship Positions

Myrebas

Last reported at 2018-Mar-22 12:32 UTC. Time now 2018-Jul-20 16:13 UTC.
Position N 67°33' E 014°04'.
Warning: this ship's position is months out of date.

Length 28 m; draft 6 m.

Type: Fishing. MMSI: 257587500.

Date/timePositionNaut miles runAvg speedWind from/ knotsBaromVisibWave heightAir tempDewpointWater temp
2018-Mar-22 12:32N 67°33' E 014°04'0 8.8
2018-Mar-22 12:30N 67°32' E 014°05'4 8.8
2018-Mar-22 12:00N 67°28' E 014°08'4 8.9
2018-Mar-22 11:30N 67°24' E 014°12'4 7.9
2018-Mar-22 11:00N 67°20' E 014°16'4 7.8
2018-Mar-22 10:30N 67°17' E 014°22'1 1.8
2018-Mar-22 10:00N 67°18' E 014°23'0 0.0
2018-Mar-22 09:30N 67°18' E 014°23'0 0.0
2018-Mar-22 09:00N 67°18' E 014°23'0 0.0
2018-Mar-22 08:30N 67°18' E 014°23'0 0.0
2018-Mar-22 08:00N 67°18' E 014°23'0 0.0
2018-Mar-22 07:30N 67°18' E 014°23'0 0.0
2018-Mar-22 07:00N 67°18' E 014°23'0 0.0
2018-Mar-22 06:30N 67°18' E 014°23'0 0.0
2018-Mar-22 06:00N 67°18' E 014°23'0 0.0
2018-Mar-22 05:30N 67°18' E 014°23'0 0.0
2018-Mar-22 05:00N 67°18' E 014°23'0 0.0
2018-Mar-22 04:30N 67°18' E 014°23'0 0.0
2018-Mar-22 04:00N 67°18' E 014°23'0 0.0
2018-Mar-22 03:30N 67°18' E 014°23'0 0.0
2018-Mar-22 03:00N 67°18' E 014°23'0 0.0
2018-Mar-22 02:30N 67°18' E 014°23'0 0.0
2018-Mar-22 02:00N 67°18' E 014°23'0 0.0
2018-Mar-22 01:30N 67°18' E 014°23'0 0.0
2018-Mar-22 01:00N 67°18' E 014°23'0 0.0
2018-Mar-22 00:30N 67°18' E 014°23'0 0.0
2018-Mar-22 00:00N 67°18' E 014°23'0 0.7
2018-Mar-21 23:30N 67°18' E 014°22'4 8.5
2018-Mar-21 23:00N 67°22' E 014°25'4 8.5
2018-Mar-21 22:30N 67°26' E 014°26'4 8.5
2018-Mar-21 22:00N 67°30' E 014°23'4 8.3
2018-Mar-21 21:28N 67°35' E 014°21'4 8.4
2018-Mar-21 21:00N 67°38' E 014°18'4 8.5
2018-Mar-21 20:30N 67°43' E 014°16'5 8.6
2018-Mar-21 19:55N 67°48' E 014°14'  

Dump ship's entire track history